createdAt,value
2017-05-31T00:00:04.559Z,819.01
2017-05-31T00:00:08.750Z,819
2017-05-31T00:00:13.178Z,818.98
2017-05-31T00:00:17.483Z,819
2017-05-31T00:00:21.799Z,818.98
2017-05-31T00:00:26.297Z,819.02
2017-05-31T00:00:30.509Z,819
2017-05-31T00:00:34.939Z,819.02
2017-05-31T00:00:39.364Z,818.99
2017-05-31T00:00:43.792Z,818.93
2017-05-31T00:00:48.220Z,819.02
2017-05-31T00:00:52.415Z,818.99
2017-05-31T00:00:56.730Z,819
2017-05-31T00:01:01.166Z,819.01
2017-05-31T00:01:05.473Z,818.99
2017-05-31T00:01:09.896Z,818.99
2017-05-31T00:01:14.204Z,818.98
2017-05-31T00:01:18.647Z,818.99
2017-05-31T00:01:22.960Z,818.98
2017-05-31T00:01:27.155Z,818.98
2017-05-31T00:01:31.360Z,818.95
2017-05-31T00:01:35.782Z,819.03
2017-05-31T00:01:39.972Z,818.99
2017-05-31T00:01:44.392Z,818.95
2017-05-31T00:01:48.814Z,818.98
2017-05-31T00:01:53.240Z,818.98
2017-05-31T00:01:57.442Z,819
2017-05-31T00:02:01.973Z,819
2017-05-31T00:02:06.044Z,819.03
2017-05-31T00:02:10.353Z,818.97
2017-05-31T00:02:14.667Z,818.97
2017-05-31T00:02:19.100Z,819.02
2017-05-31T00:02:23.190Z,819.03
2017-05-31T00:02:27.388Z,818.96
2017-05-31T00:02:31.706Z,819
2017-05-31T00:02:36.132Z,819
2017-05-31T00:02:40.324Z,818.98
2017-05-31T00:02:44.746Z,818.98
2017-05-31T00:02:49.172Z,819.01
2017-05-31T00:02:53.670Z,818.99
2017-05-31T00:02:57.985Z,819.01
2017-05-31T00:03:02.406Z,819.04
2017-05-31T00:03:06.710Z,818.95
2017-05-31T00:03:10.899Z,818.96
2017-05-31T00:03:15.324Z,819.01
2017-05-31T00:03:19.747Z,818.99
2017-05-31T00:03:24.060Z,819.01
2017-05-31T00:03:28.260Z,818.99
2017-05-31T00:03:32.686Z,818.97
2017-05-31T00:03:36.989Z,819
2017-05-31T00:03:41.294Z,818.99
2017-05-31T00:03:45.712Z,818.99
2017-05-31T00:03:50.148Z,819.02
2017-05-31T00:03:54.582Z,819
2017-05-31T00:03:58.899Z,818.99
2017-05-31T00:04:03.142Z,819.02
2017-05-31T00:04:07.567Z,819.01
2017-05-31T00:04:11.757Z,819
2017-05-31T00:04:16.183Z,819
2017-05-31T00:04:20.620Z,818.99
2017-05-31T00:04:25.041Z,819.03
2017-05-31T00:04:29.122Z,818.99
2017-05-31T00:04:33.556Z,818.96
2017-05-31T00:04:37.871Z,819.02
2017-05-31T00:04:42.183Z,819.02
2017-05-31T00:04:46.606Z,819.03
2017-05-31T00:04:51.035Z,819.02
2017-05-31T00:04:55.519Z,819.01
2017-05-31T00:04:59.830Z,819.02
2017-05-31T00:05:04.319Z,819.04
2017-05-31T00:05:08.515Z,818.99
2017-05-31T00:05:12.939Z,818.97
2017-05-31T00:05:17.248Z,819.03
2017-05-31T00:05:21.563Z,819.03
2017-05-31T00:05:26.002Z,819.03
2017-05-31T00:05:30.326Z,819.01
2017-05-31T00:05:34.634Z,819
2017-05-31T00:05:38.952Z,819
2017-05-31T00:05:43.145Z,819.01
2017-05-31T00:05:47.566Z,819.02
2017-05-31T00:05:51.877Z,819.01
2017-05-31T00:05:56.188Z,819.01
2017-05-31T00:06:00.491Z,819.04
2017-05-31T00:06:04.797Z,818.97
2017-05-31T00:06:09.222Z,819.04
2017-05-31T00:06:13.530Z,819.01
2017-05-31T00:06:17.718Z,819.03
2017-05-31T00:06:22.107Z,819.05
2017-05-31T00:06:26.301Z,819.04
2017-05-31T00:06:30.496Z,819.06
2017-05-31T00:06:34.946Z,819.05
2017-05-31T00:06:39.255Z,819.06
2017-05-31T00:06:43.686Z,819.05
2017-05-31T00:06:48.000Z,818.98
2017-05-31T00:06:52.365Z,819
2017-05-31T00:06:56.682Z,818.97
2017-05-31T00:07:01.105Z,819.01
2017-05-31T00:07:05.417Z,819.01
2017-05-31T00:07:09.608Z,819.02
2017-05-31T00:07:13.916Z,818.99
2017-05-31T00:07:18.347Z,819.02
2017-05-31T00:07:22.779Z,819.04
2017-05-31T00:07:27.220Z,819.02
2017-05-31T00:07:31.643Z,819
2017-05-31T00:07:35.832Z,819.04
2017-05-31T00:07:40.253Z,819.05
2017-05-31T00:07:44.678Z,819.04
2017-05-31T00:07:48.871Z,819.03
2017-05-31T00:07:53.305Z,819.01
2017-05-31T00:07:57.520Z,819.02
2017-05-31T00:08:01.943Z,819.02
2017-05-31T00:08:06.369Z,819.05
2017-05-31T00:08:10.559Z,819.06
2017-05-31T00:08:14.865Z,819
2017-05-31T00:08:19.066Z,819.03
2017-05-31T00:08:23.567Z,819.02
2017-05-31T00:08:27.754Z,819
2017-05-31T00:08:32.058Z,819.03
2017-05-31T00:08:36.481Z,819.01
2017-05-31T00:08:40.786Z,819.02
2017-05-31T00:08:45.092Z,819
2017-05-31T00:08:49.402Z,819.02
2017-05-31T00:08:53.716Z,819.01
2017-05-31T00:08:58.034Z,819.03
2017-05-31T00:09:02.509Z,819.01
2017-05-31T00:09:06.940Z,819.03
2017-05-31T00:09:11.250Z,818.99
2017-05-31T00:09:15.438Z,818.97
2017-05-31T00:09:19.871Z,818.99
2017-05-31T00:09:24.303Z,818.99
2017-05-31T00:09:28.381Z,819
2017-05-31T00:09:32.693Z,818.97
2017-05-31T00:09:37.043Z,819.01
2017-05-31T00:09:41.469Z,818.99
2017-05-31T00:09:45.773Z,819.04
2017-05-31T00:09:50.085Z,819.01
2017-05-31T00:09:54.518Z,818.97
2017-05-31T00:09:58.944Z,819.01
2017-05-31T00:10:03.139Z,818.96
2017-05-31T00:10:07.447Z,818.99
2017-05-31T00:10:11.636Z,818.98
2017-05-31T00:10:15.946Z,819
2017-05-31T00:10:20.373Z,819.02
2017-05-31T00:10:24.801Z,818.98
2017-05-31T00:10:29.108Z,818.99
2017-05-31T00:10:33.415Z,818.99
2017-05-31T00:10:37.613Z,818.95
2017-05-31T00:10:42.043Z,819.01
2017-05-31T00:10:46.506Z,819.01
2017-05-31T00:10:50.702Z,819.01
2017-05-31T00:10:55.009Z,818.98
2017-05-31T00:10:59.196Z,818.99
2017-05-31T00:11:03.505Z,819.01
2017-05-31T00:11:07.816Z,819
2017-05-31T00:11:12.124Z,818.99
2017-05-31T00:11:16.204Z,819
2017-05-31T00:11:20.514Z,818.99
2017-05-31T00:11:24.838Z,819
2017-05-31T00:11:29.026Z,818.95
2017-05-31T00:11:33.220Z,819
2017-05-31T00:11:37.523Z,819.03
2017-05-31T00:11:41.950Z,819.01
2017-05-31T00:11:46.381Z,819
2017-05-31T00:11:50.697Z,819
2017-05-31T00:11:55.014Z,819.02
2017-05-31T00:11:59.433Z,818.99
2017-05-31T00:12:03.924Z,818.99
2017-05-31T00:12:08.240Z,818.92
2017-05-31T00:12:12.549Z,818.95
2017-05-31T00:12:16.749Z,818.95
2017-05-31T00:12:21.060Z,819.02
2017-05-31T00:12:25.279Z,818.98
2017-05-31T00:12:29.703Z,818.97
2017-05-31T00:12:33.892Z,818.99
2017-05-31T00:12:38.316Z,819
2017-05-31T00:12:42.745Z,818.99
2017-05-31T00:12:47.172Z,818.99
2017-05-31T00:12:51.601Z,818.99
2017-05-31T00:12:55.914Z,818.98
2017-05-31T00:12:59.983Z,818.98
2017-05-31T00:13:04.404Z,818.98
2017-05-31T00:13:08.707Z,818.99
2017-05-31T00:13:13.017Z,818.97
2017-05-31T00:13:17.260Z,818.96
2017-05-31T00:13:21.454Z,819.01
2017-05-31T00:13:25.762Z,818.98
2017-05-31T00:13:30.067Z,818.97
2017-05-31T00:13:34.372Z,818.99
2017-05-31T00:13:38.676Z,819.01
2017-05-31T00:13:43.100Z,819.01
2017-05-31T00:13:47.522Z,818.99
2017-05-31T00:13:52.012Z,818.94
2017-05-31T00:13:56.449Z,818.97
2017-05-31T00:14:00.756Z,818.97
2017-05-31T00:14:05.066Z,818.98
2017-05-31T00:14:09.370Z,819.02
2017-05-31T00:14:13.556Z,819
2017-05-31T00:14:17.753Z,818.99
2017-05-31T00:14:22.129Z,819
2017-05-31T00:14:26.558Z,818.99
2017-05-31T00:14:30.870Z,819
2017-05-31T00:14:35.063Z,818.99
2017-05-31T00:14:39.490Z,818.93
2017-05-31T00:14:43.795Z,818.96
2017-05-31T00:14:48.233Z,818.96
2017-05-31T00:14:52.662Z,819
2017-05-31T00:14:56.990Z,818.96
2017-05-31T00:15:01.299Z,818.98
2017-05-31T00:15:05.725Z,818.99
2017-05-31T00:15:09.914Z,818.99
2017-05-31T00:15:14.229Z,818.94
2017-05-31T00:15:18.548Z,819.01
2017-05-31T00:15:22.984Z,819.02
2017-05-31T00:15:27.424Z,819.03
2017-05-31T00:15:31.617Z,819.02
2017-05-31T00:15:35.688Z,819
2017-05-31T00:15:39.993Z,819.05
2017-05-31T00:15:44.303Z,819.02
2017-05-31T00:15:48.618Z,819.03
2017-05-31T00:15:52.936Z,819.04
2017-05-31T00:15:57.144Z,819.01
2017-05-31T00:16:01.569Z,819.04
2017-05-31T00:16:05.880Z,819.04
2017-05-31T00:16:10.307Z,819.03
2017-05-31T00:16:14.506Z,819.01
2017-05-31T00:16:18.696Z,819.04
2017-05-31T00:16:22.955Z,819.02
2017-05-31T00:16:27.174Z,819.03
2017-05-31T00:16:31.366Z,818.97
2017-05-31T00:16:35.676Z,818.99
2017-05-31T00:16:39.984Z,819
2017-05-31T00:16:44.288Z,819.02
2017-05-31T00:16:48.714Z,819.05
2017-05-31T00:16:52.908Z,819.03
2017-05-31T00:16:57.223Z,819.04
2017-05-31T00:17:01.416Z,819
2017-05-31T00:17:05.731Z,819.04
2017-05-31T00:17:10.158Z,819.04
2017-05-31T00:17:14.581Z,819
2017-05-31T00:17:19.003Z,819
2017-05-31T00:17:23.428Z,819.02
2017-05-31T00:17:27.928Z,819.05
2017-05-31T00:17:32.363Z,819.04
2017-05-31T00:17:36.673Z,819.05
2017-05-31T00:17:41.102Z,819.07
2017-05-31T00:17:45.531Z,819.07
2017-05-31T00:17:49.954Z,819.07
2017-05-31T00:17:54.143Z,819.04
2017-05-31T00:17:58.458Z,819.1
2017-05-31T00:18:02.922Z,819.04
2017-05-31T00:18:07.228Z,819.08
2017-05-31T00:18:11.648Z,819.09
2017-05-31T00:18:15.483Z,819.08
2017-05-31T00:18:19.675Z,819.07
2017-05-31T00:18:24.104Z,819.05
2017-05-31T00:18:28.301Z,819.03
2017-05-31T00:18:32.615Z,819.07
2017-05-31T00:18:36.804Z,819.05
2017-05-31T00:18:41.111Z,819.06
2017-05-31T00:18:45.540Z,819.06
2017-05-31T00:18:49.613Z,819.06
2017-05-31T00:18:54.052Z,819.09
2017-05-31T00:18:58.481Z,819.05
2017-05-31T00:19:02.851Z,819.09
2017-05-31T00:19:07.281Z,819.07
2017-05-31T00:19:11.588Z,819.08
2017-05-31T00:19:15.896Z,819.08
2017-05-31T00:19:20.201Z,819.05
2017-05-31T00:19:24.627Z,819.1
2017-05-31T00:19:28.877Z,819.06
2017-05-31T00:19:33.190Z,819.06
2017-05-31T00:19:37.504Z,819.06
2017-05-31T00:19:41.948Z,819.05
2017-05-31T00:19:46.261Z,819.07
2017-05-31T00:19:50.689Z,819.03
2017-05-31T00:19:54.887Z,819.05
2017-05-31T00:19:59.322Z,819.01
2017-05-31T00:20:03.637Z,819.04
2017-05-31T00:20:07.706Z,818.99
2017-05-31T00:20:11.892Z,819.08
2017-05-31T00:20:16.197Z,819.07
2017-05-31T00:20:20.517Z,819.06
2017-05-31T00:20:24.831Z,819.06
2017-05-31T00:20:29.029Z,819.03
2017-05-31T00:20:33.333Z,819.04
2017-05-31T00:20:37.644Z,819.04
2017-05-31T00:20:41.950Z,819.04
2017-05-31T00:20:46.257Z,819.07
2017-05-31T00:20:50.681Z,819.04
2017-05-31T00:20:54.943Z,819.06
2017-05-31T00:20:59.370Z,819.05
2017-05-31T00:21:03.791Z,819.03
2017-05-31T00:21:07.986Z,819.01
2017-05-31T00:21:12.081Z,819
2017-05-31T00:21:16.274Z,819.04
2017-05-31T00:21:20.466Z,819.05
2017-05-31T00:21:24.849Z,819.02
2017-05-31T00:21:29.055Z,819.01
2017-05-31T00:21:33.357Z,819.05
2017-05-31T00:21:37.783Z,819.03
2017-05-31T00:21:42.207Z,819.03
2017-05-31T00:21:46.399Z,818.99
2017-05-31T00:21:50.832Z,818.98
2017-05-31T00:21:55.270Z,818.99
2017-05-31T00:21:59.697Z,819
2017-05-31T00:22:04.007Z,818.98
2017-05-31T00:22:08.317Z,819.02
2017-05-31T00:22:12.740Z,818.98
2017-05-31T00:22:17.052Z,818.95
2017-05-31T00:22:21.369Z,818.98
2017-05-31T00:22:25.560Z,818.94
2017-05-31T00:22:29.755Z,818.93
2017-05-31T00:22:34.179Z,818.96
2017-05-31T00:22:38.601Z,818.99
2017-05-31T00:22:42.794Z,818.96
2017-05-31T00:22:47.103Z,818.96
2017-05-31T00:22:51.532Z,818.97
2017-05-31T00:22:55.964Z,818.97
2017-05-31T00:23:00.277Z,818.96
2017-05-31T00:23:04.857Z,818.93
2017-05-31T00:23:09.171Z,818.92
2017-05-31T00:23:13.603Z,818.92
2017-05-31T00:23:18.037Z,818.91
2017-05-31T00:23:22.237Z,818.92
2017-05-31T00:23:26.573Z,818.9
2017-05-31T00:23:30.880Z,818.9
2017-05-31T00:23:35.182Z,818.92
2017-05-31T00:23:39.493Z,818.92
2017-05-31T00:23:43.678Z,818.91
2017-05-31T00:23:47.988Z,818.9
2017-05-31T00:23:52.331Z,818.9
2017-05-31T00:23:56.647Z,818.87
2017-05-31T00:24:00.953Z,818.87
2017-05-31T00:24:05.433Z,818.84
2017-05-31T00:24:09.508Z,818.86
2017-05-31T00:24:13.816Z,818.85
2017-05-31T00:24:18.242Z,818.86
2017-05-31T00:24:22.681Z,818.83
2017-05-31T00:24:26.990Z,818.89
2017-05-31T00:24:31.300Z,818.86
2017-05-31T00:24:35.487Z,818.89
2017-05-31T00:24:39.915Z,818.88
2017-05-31T00:24:44.108Z,818.9
2017-05-31T00:24:48.543Z,818.91
2017-05-31T00:24:52.856Z,818.83
2017-05-31T00:24:57.169Z,818.87
2017-05-31T00:25:01.478Z,818.88
2017-05-31T00:25:05.836Z,818.85
2017-05-31T00:25:10.144Z,818.86
2017-05-31T00:25:14.338Z,818.85
2017-05-31T00:25:18.668Z,818.85
2017-05-31T00:25:22.990Z,818.81
2017-05-31T00:25:27.434Z,818.83
2017-05-31T00:25:31.627Z,818.82
2017-05-31T00:25:35.938Z,818.84
2017-05-31T00:25:40.245Z,818.77
2017-05-31T00:25:44.669Z,818.78
2017-05-31T00:25:49.038Z,818.79
2017-05-31T00:25:53.356Z,818.81
2017-05-31T00:25:57.545Z,818.8
2017-05-31T00:26:01.831Z,818.81
2017-05-31T00:26:06.138Z,818.84
2017-05-31T00:26:10.447Z,818.75
2017-05-31T00:26:14.639Z,818.8
2017-05-31T00:26:19.062Z,818.79
2017-05-31T00:26:23.496Z,818.81
2017-05-31T00:26:27.708Z,818.78
2017-05-31T00:26:32.014Z,818.76
2017-05-31T00:26:36.322Z,818.77
2017-05-31T00:26:40.753Z,818.79
2017-05-31T00:26:45.180Z,818.8
2017-05-31T00:26:49.609Z,818.8
2017-05-31T00:26:54.042Z,818.79
2017-05-31T00:26:58.469Z,818.78
2017-05-31T00:27:02.662Z,818.77
2017-05-31T00:27:06.969Z,818.77
2017-05-31T00:27:11.279Z,818.73
2017-05-31T00:27:15.701Z,818.75
2017-05-31T00:27:20.132Z,818.7
2017-05-31T00:27:24.448Z,818.74
2017-05-31T00:27:28.758Z,818.72
2017-05-31T00:27:33.071Z,818.78
2017-05-31T00:27:37.150Z,818.73
2017-05-31T00:27:41.577Z,818.71
2017-05-31T00:27:46.002Z,818.73
2017-05-31T00:27:50.194Z,818.76
2017-05-31T00:27:54.511Z,818.71
2017-05-31T00:27:58.841Z,818.72
2017-05-31T00:28:03.254Z,818.67
2017-05-31T00:28:07.678Z,818.71
2017-05-31T00:28:12.102Z,818.66
2017-05-31T00:28:16.171Z,818.72
2017-05-31T00:28:20.599Z,818.72
2017-05-31T00:28:25.032Z,818.72
2017-05-31T00:28:29.248Z,818.7
2017-05-31T00:28:33.557Z,818.68
2017-05-31T00:28:37.864Z,818.71
2017-05-31T00:28:42.287Z,818.68
2017-05-31T00:28:46.480Z,818.69
2017-05-31T00:28:50.912Z,818.69
2017-05-31T00:28:55.276Z,818.69
2017-05-31T00:28:59.709Z,818.67
2017-05-31T00:29:04.284Z,818.68
2017-05-31T00:29:08.712Z,818.67
2017-05-31T00:29:13.013Z,818.64
2017-05-31T00:29:17.319Z,818.67
2017-05-31T00:29:21.749Z,818.69
2017-05-31T00:29:26.185Z,818.68
2017-05-31T00:29:30.381Z,818.67
2017-05-31T00:29:34.803Z,818.64
2017-05-31T00:29:39.225Z,818.61
2017-05-31T00:29:43.652Z,818.67
2017-05-31T00:29:47.965Z,818.6
2017-05-31T00:29:52.397Z,818.64
2017-05-31T00:29:56.705Z,818.63
2017-05-31T00:30:01.131Z,818.63
2017-05-31T00:30:05.437Z,818.63
2017-05-31T00:30:09.631Z,818.64
2017-05-31T00:30:13.942Z,818.64
2017-05-31T00:30:18.369Z,818.63
2017-05-31T00:30:22.796Z,818.62
2017-05-31T00:30:26.986Z,818.62
2017-05-31T00:30:31.059Z,818.65
2017-05-31T00:30:35.479Z,818.62
2017-05-31T00:30:39.790Z,818.61
2017-05-31T00:30:44.218Z,818.6
2017-05-31T00:30:48.531Z,818.61
2017-05-31T00:30:52.848Z,818.63
2017-05-31T00:30:57.280Z,818.59
2017-05-31T00:31:01.586Z,818.57
2017-05-31T00:31:05.894Z,818.61
2017-05-31T00:31:10.207Z,818.61
2017-05-31T00:31:14.519Z,818.6
2017-05-31T00:31:18.946Z,818.6
2017-05-31T00:31:23.380Z,818.62
2017-05-31T00:31:27.580Z,818.66
2017-05-31T00:31:31.884Z,818.59
2017-05-31T00:31:36.194Z,818.6
2017-05-31T00:31:40.504Z,818.63
2017-05-31T00:31:44.929Z,818.62
2017-05-31T00:31:49.239Z,818.6
2017-05-31T00:31:53.612Z,818.61
2017-05-31T00:31:58.073Z,818.58
2017-05-31T00:32:02.602Z,818.61
2017-05-31T00:32:06.910Z,818.57
2017-05-31T00:32:11.218Z,818.62
2017-05-31T00:32:15.524Z,818.62
2017-05-31T00:32:19.954Z,818.6
2017-05-31T00:32:24.384Z,818.58
2017-05-31T00:32:28.699Z,818.6
2017-05-31T00:32:33.005Z,818.59
2017-05-31T00:32:37.309Z,818.59
2017-05-31T00:32:41.613Z,818.61
2017-05-31T00:32:46.042Z,818.58
2017-05-31T00:32:50.352Z,818.62
2017-05-31T00:32:54.845Z,818.55
2017-05-31T00:32:59.279Z,818.6
2017-05-31T00:33:03.636Z,818.58
2017-05-31T00:33:08.062Z,818.64
2017-05-31T00:33:12.251Z,818.6
2017-05-31T00:33:16.676Z,818.61
2017-05-31T00:33:20.868Z,818.58
2017-05-31T00:33:25.361Z,818.59
2017-05-31T00:33:29.693Z,818.59
2017-05-31T00:33:34.002Z,818.59
2017-05-31T00:33:38.426Z,818.63
2017-05-31T00:33:42.743Z,818.56
2017-05-31T00:33:47.166Z,818.59
2017-05-31T00:33:51.356Z,818.58
2017-05-31T00:33:55.673Z,818.59
2017-05-31T00:33:59.887Z,818.62
2017-05-31T00:34:04.316Z,818.63
2017-05-31T00:34:08.272Z,818.61
2017-05-31T00:34:12.352Z,818.62
2017-05-31T00:34:16.664Z,818.63
2017-05-31T00:34:21.090Z,818.6
2017-05-31T00:34:25.465Z,818.62
2017-05-31T00:34:29.798Z,818.6
2017-05-31T00:34:34.220Z,818.64
2017-05-31T00:34:38.642Z,818.62
2017-05-31T00:34:42.952Z,818.63
2017-05-31T00:34:47.262Z,818.64
2017-05-31T00:34:51.456Z,818.61
2017-05-31T00:34:55.770Z,818.66
2017-05-31T00:35:00.086Z,818.62
2017-05-31T00:35:04.596Z,818.63
2017-05-31T00:35:08.903Z,818.68
2017-05-31T00:35:13.091Z,818.64
2017-05-31T00:35:17.520Z,818.64
2017-05-31T00:35:22.051Z,818.59
2017-05-31T00:35:26.394Z,818.64
2017-05-31T00:35:30.585Z,818.64
2017-05-31T00:35:34.896Z,818.66
2017-05-31T00:35:39.201Z,818.65
2017-05-31T00:35:43.629Z,818.65
2017-05-31T00:35:48.059Z,818.67
2017-05-31T00:35:52.492Z,818.68
2017-05-31T00:35:56.914Z,818.63
2017-05-31T00:36:01.106Z,818.7
2017-05-31T00:36:05.567Z,818.66
2017-05-31T00:36:09.757Z,818.67
2017-05-31T00:36:14.066Z,818.68
2017-05-31T00:36:18.379Z,818.71
2017-05-31T00:36:22.811Z,818.71
2017-05-31T00:36:27.234Z,818.69
2017-05-31T00:36:31.424Z,818.68
2017-05-31T00:36:35.852Z,818.64
2017-05-31T00:36:40.289Z,818.67
2017-05-31T00:36:44.721Z,818.71
2017-05-31T00:36:49.157Z,818.68
2017-05-31T00:36:53.477Z,818.64
2017-05-31T00:36:57.787Z,818.67
2017-05-31T00:37:02.093Z,818.67
2017-05-31T00:37:06.166Z,818.7
2017-05-31T00:37:10.470Z,818.7
2017-05-31T00:37:14.896Z,818.67
2017-05-31T00:37:19.210Z,818.71
2017-05-31T00:37:23.641Z,818.7
2017-05-31T00:37:27.948Z,818.71
2017-05-31T00:37:32.379Z,818.71
2017-05-31T00:37:36.802Z,818.71
2017-05-31T00:37:41.229Z,818.68
2017-05-31T00:37:45.657Z,818.66
2017-05-31T00:37:50.095Z,818.68
2017-05-31T00:37:54.414Z,818.71
2017-05-31T00:37:58.725Z,818.67
2017-05-31T00:38:02.907Z,818.7
2017-05-31T00:38:07.335Z,818.73
2017-05-31T00:38:11.519Z,818.7
2017-05-31T00:38:15.949Z,818.7
2017-05-31T00:38:20.381Z,818.7
2017-05-31T00:38:24.708Z,818.71
2017-05-31T00:38:29.014Z,818.73
2017-05-31T00:38:33.321Z,818.77
2017-05-31T00:38:37.749Z,818.73
2017-05-31T00:38:42.064Z,818.71
2017-05-31T00:38:46.551Z,818.76
2017-05-31T00:38:50.991Z,818.73
2017-05-31T00:38:55.296Z,818.74
2017-05-31T00:38:59.611Z,818.76
2017-05-31T00:39:04.099Z,818.77
2017-05-31T00:39:08.522Z,818.75
2017-05-31T00:39:12.832Z,818.77
2017-05-31T00:39:16.909Z,818.77
2017-05-31T00:39:21.221Z,818.75
2017-05-31T00:39:25.424Z,818.74
2017-05-31T00:39:29.732Z,818.78
2017-05-31T00:39:34.151Z,818.78
2017-05-31T00:39:38.458Z,818.78
2017-05-31T00:39:42.883Z,818.78
2017-05-31T00:39:47.312Z,818.8
2017-05-31T00:39:51.747Z,818.84
2017-05-31T00:39:56.054Z,818.78
2017-05-31T00:40:00.360Z,818.82
2017-05-31T00:40:04.588Z,818.82
2017-05-31T00:40:09.015Z,818.83
2017-05-31T00:40:13.210Z,818.81
2017-05-31T00:40:17.409Z,818.84
2017-05-31T00:40:21.714Z,818.82
2017-05-31T00:40:26.019Z,818.8
2017-05-31T00:40:30.442Z,818.83
2017-05-31T00:40:34.867Z,818.84
2017-05-31T00:40:39.292Z,818.82
2017-05-31T00:40:43.603Z,818.8
2017-05-31T00:40:47.917Z,818.81
2017-05-31T00:40:52.346Z,818.81
2017-05-31T00:40:56.414Z,818.83
2017-05-31T00:41:00.722Z,818.84
2017-05-31T00:41:05.041Z,818.79
2017-05-31T00:41:09.462Z,818.84
2017-05-31T00:41:13.777Z,818.87
2017-05-31T00:41:18.032Z,818.83
2017-05-31T00:41:22.340Z,818.87
2017-05-31T00:41:26.410Z,818.87
2017-05-31T00:41:30.718Z,818.87
2017-05-31T00:41:35.026Z,818.88
2017-05-31T00:41:39.456Z,818.88
2017-05-31T00:41:43.763Z,818.9
2017-05-31T00:41:48.075Z,818.89
2017-05-31T00:41:52.514Z,818.92
2017-05-31T00:41:56.937Z,818.9
2017-05-31T00:42:01.364Z,818.94
2017-05-31T00:42:05.552Z,818.91
2017-05-31T00:42:09.973Z,818.9
2017-05-31T00:42:14.401Z,818.86
2017-05-31T00:42:18.883Z,818.93
2017-05-31T00:42:23.313Z,818.92
2017-05-31T00:42:27.620Z,818.92
2017-05-31T00:42:31.934Z,818.93
2017-05-31T00:42:36.375Z,818.93
2017-05-31T00:42:40.677Z,818.94
2017-05-31T00:42:44.871Z,818.95
2017-05-31T00:42:49.181Z,818.94
2017-05-31T00:42:53.539Z,818.9
2017-05-31T00:42:57.967Z,818.97
2017-05-31T00:43:02.599Z,819
2017-05-31T00:43:07.026Z,818.95
2017-05-31T00:43:11.331Z,818.95
2017-05-31T00:43:15.639Z,818.98
2017-05-31T00:43:19.950Z,818.97
2017-05-31T00:43:24.617Z,818.98
2017-05-31T00:43:29.044Z,818.98
2017-05-31T00:43:33.473Z,818.97
2017-05-31T00:43:37.782Z,818.96
2017-05-31T00:43:42.202Z,818.99
2017-05-31T00:43:46.515Z,819
2017-05-31T00:43:50.712Z,819.01
2017-05-31T00:43:55.077Z,818.97
2017-05-31T00:43:59.522Z,818.99
2017-05-31T00:44:03.951Z,818.97
2017-05-31T00:44:08.258Z,819
2017-05-31T00:44:12.568Z,819.02
2017-05-31T00:44:16.992Z,819.03
2017-05-31T00:44:21.182Z,819
2017-05-31T00:44:25.381Z,819.02
2017-05-31T00:44:29.818Z,818.99
2017-05-31T00:44:34.240Z,819.04
2017-05-31T00:44:38.665Z,819.02
2017-05-31T00:44:43.084Z,819.01
2017-05-31T00:44:47.152Z,819.05
2017-05-31T00:44:51.588Z,819.05
2017-05-31T00:44:55.902Z,819.06
2017-05-31T00:45:00.208Z,819.02
2017-05-31T00:45:04.401Z,819.01
2017-05-31T00:45:08.706Z,819.08
2017-05-31T00:45:13.132Z,819.04
2017-05-31T00:45:17.443Z,819.05
2017-05-31T00:45:21.757Z,819.08
2017-05-31T00:45:26.230Z,819.08
2017-05-31T00:45:30.562Z,819.08
2017-05-31T00:45:34.998Z,819.11
2017-05-31T00:45:39.418Z,819.06
2017-05-31T00:45:43.733Z,819.1
2017-05-31T00:45:48.040Z,819.08
2017-05-31T00:45:52.350Z,819.09
2017-05-31T00:45:56.669Z,819.08
2017-05-31T00:46:00.860Z,819.11
2017-05-31T00:46:05.466Z,819.11
2017-05-31T00:46:09.539Z,819.15
2017-05-31T00:46:13.747Z,819.1
2017-05-31T00:46:17.820Z,819.15
2017-05-31T00:46:22.133Z,819.14
2017-05-31T00:46:26.563Z,819.13
2017-05-31T00:46:30.880Z,819.14
2017-05-31T00:46:35.307Z,819.14
2017-05-31T00:46:39.732Z,819.15
2017-05-31T00:46:44.156Z,819.18
2017-05-31T00:46:48.472Z,819.15
2017-05-31T00:46:52.901Z,819.16
2017-05-31T00:46:57.100Z,819.16
2017-05-31T00:47:01.537Z,819.14
2017-05-31T00:47:05.962Z,819.19
2017-05-31T00:47:10.269Z,819.2
2017-05-31T00:47:14.690Z,819.21
2017-05-31T00:47:19.000Z,819.18
2017-05-31T00:47:23.481Z,819.21
2017-05-31T00:47:27.675Z,819.2
2017-05-31T00:47:31.875Z,819.2
2017-05-31T00:47:36.182Z,819.16
2017-05-31T00:47:40.605Z,819.22
2017-05-31T00:47:45.033Z,819.25
2017-05-31T00:47:49.459Z,819.23
2017-05-31T00:47:53.771Z,819.27
2017-05-31T00:47:58.085Z,819.26
2017-05-31T00:48:02.527Z,819.27
2017-05-31T00:48:06.836Z,819.23
2017-05-31T00:48:11.262Z,819.27
2017-05-31T00:48:15.337Z,819.27
2017-05-31T00:48:19.526Z,819.25
2017-05-31T00:48:23.893Z,819.25
2017-05-31T00:48:28.224Z,819.22
2017-05-31T00:48:32.412Z,819.27
2017-05-31T00:48:36.597Z,819.28
2017-05-31T00:48:40.904Z,819.31
2017-05-31T00:48:45.215Z,819.28
2017-05-31T00:48:49.524Z,819.24
2017-05-31T00:48:53.719Z,819.3
2017-05-31T00:48:58.040Z,819.27
2017-05-31T00:49:02.347Z,819.23
2017-05-31T00:49:06.651Z,819.24
2017-05-31T00:49:10.959Z,819.29
2017-05-31T00:49:15.382Z,819.32
2017-05-31T00:49:19.807Z,819.3
2017-05-31T00:49:24.246Z,819.32
2017-05-31T00:49:28.688Z,819.32
2017-05-31T00:49:32.880Z,819.31
2017-05-31T00:49:37.070Z,819.31
2017-05-31T00:49:41.380Z,819.3
2017-05-31T00:49:45.818Z,819.32
2017-05-31T00:49:50.124Z,819.28
2017-05-31T00:49:54.324Z,819.32
2017-05-31T00:49:58.759Z,819.32
2017-05-31T00:50:03.398Z,819.34
2017-05-31T00:50:07.709Z,819.35
2017-05-31T00:50:12.018Z,819.35
2017-05-31T00:50:16.207Z,819.32
2017-05-31T00:50:20.524Z,819.33
2017-05-31T00:50:24.844Z,819.34
2017-05-31T00:50:29.188Z,819.36
2017-05-31T00:50:33.611Z,819.34
2017-05-31T00:50:37.801Z,819.35
2017-05-31T00:50:42.222Z,819.35
2017-05-31T00:50:46.529Z,819.37
2017-05-31T00:50:50.957Z,819.31
2017-05-31T00:50:55.152Z,819.37
2017-05-31T00:50:59.600Z,819.35
2017-05-31T00:51:03.945Z,819.34
2017-05-31T00:51:08.371Z,819.35
2017-05-31T00:51:12.559Z,819.33
2017-05-31T00:51:16.986Z,819.33
2017-05-31T00:51:21.177Z,819.35
2017-05-31T00:51:25.498Z,819.35
2017-05-31T00:51:29.574Z,819.36
2017-05-31T00:51:33.879Z,819.35
2017-05-31T00:51:38.299Z,819.37
2017-05-31T00:51:42.731Z,819.36
2017-05-31T00:51:47.154Z,819.37
2017-05-31T00:51:51.342Z,819.38
2017-05-31T00:51:55.656Z,819.38
2017-05-31T00:52:00.022Z,819.4
2017-05-31T00:52:04.440Z,819.41
2017-05-31T00:52:08.867Z,819.4
2017-05-31T00:52:13.054Z,819.39
2017-05-31T00:52:17.482Z,819.38
2017-05-31T00:52:21.800Z,819.42
2017-05-31T00:52:26.128Z,819.41
2017-05-31T00:52:30.336Z,819.42
2017-05-31T00:52:34.757Z,819.39
2017-05-31T00:52:39.181Z,819.41
2017-05-31T00:52:43.604Z,819.42
2017-05-31T00:52:48.030Z,819.42
2017-05-31T00:52:52.340Z,819.41
2017-05-31T00:52:56.535Z,819.42
2017-05-31T00:53:00.844Z,819.44
2017-05-31T00:53:05.084Z,819.43
2017-05-31T00:53:09.396Z,819.38
2017-05-31T00:53:13.588Z,819.36
2017-05-31T00:53:17.778Z,819.38
2017-05-31T00:53:22.093Z,819.39
2017-05-31T00:53:26.175Z,819.47
2017-05-31T00:53:30.511Z,819.47
2017-05-31T00:53:34.939Z,819.43
2017-05-31T00:53:39.360Z,819.45
2017-05-31T00:53:43.673Z,819.45
2017-05-31T00:53:47.985Z,819.45
2017-05-31T00:53:52.183Z,819.46
2017-05-31T00:53:56.617Z,819.47
2017-05-31T00:54:01.043Z,819.48
2017-05-31T00:54:05.557Z,819.46
2017-05-31T00:54:09.744Z,819.46
2017-05-31T00:54:14.060Z,819.47
2017-05-31T00:54:18.491Z,819.41
2017-05-31T00:54:22.801Z,819.41
2017-05-31T00:54:27.248Z,819.47
2017-05-31T00:54:31.558Z,819.42